createdAt,value
2023-07-30T00:01:53.936Z,20.64
2023-07-30T00:03:57.301Z,20.65
2023-07-30T00:06:00.432Z,20.64
2023-07-30T00:08:03.520Z,20.63
2023-07-30T00:10:07.860Z,20.65
2023-07-30T00:12:11.606Z,20.62
2023-07-30T00:14:16.008Z,20.62
2023-07-30T00:16:19.273Z,20.64
2023-07-30T00:18:22.455Z,20.65
2023-07-30T00:20:27.462Z,20.63
2023-07-30T00:22:30.882Z,20.62
2023-07-30T00:24:33.919Z,20.61
2023-07-30T00:26:36.144Z,20.58
2023-07-30T00:28:39.458Z,20.57
2023-07-30T00:30:43.880Z,20.55
2023-07-30T00:32:46.562Z,20.55
2023-07-30T00:34:49.695Z,20.55
2023-07-30T00:36:52.775Z,20.55
2023-07-30T00:38:54.907Z,20.55
2023-07-30T00:40:58.014Z,20.54
2023-07-30T00:43:01.126Z,20.51
2023-07-30T00:45:04.440Z,20.52
2023-07-30T00:47:09.681Z,20.51
2023-07-30T00:49:12.881Z,20.50
2023-07-30T00:51:18.019Z,20.52
2023-07-30T00:53:24.160Z,20.54
2023-07-30T00:55:27.329Z,20.55
2023-07-30T00:57:30.751Z,20.56
2023-07-30T00:59:33.835Z,20.56
2023-07-30T01:01:38.359Z,20.54
2023-07-30T01:03:44.022Z,20.50
2023-07-30T01:05:47.361Z,20.50
2023-07-30T01:07:49.934Z,20.48
2023-07-30T01:09:53.867Z,20.46
2023-07-30T01:11:57.499Z,20.45
2023-07-30T01:14:01.894Z,20.43
2023-07-30T01:16:08.058Z,20.41
2023-07-30T01:18:11.317Z,20.39
2023-07-30T01:20:15.798Z,20.39
2023-07-30T01:22:21.199Z,20.36
2023-07-30T01:24:23.734Z,20.33
2023-07-30T01:26:29.985Z,20.30
2023-07-30T01:28:38.870Z,20.28
2023-07-30T01:30:43.999Z,20.24
2023-07-30T01:32:51.676Z,20.24
2023-07-30T01:34:56.915Z,20.25
2023-07-30T01:37:00.266Z,20.22
2023-07-30T01:39:05.447Z,20.19
2023-07-30T01:41:08.730Z,20.17
2023-07-30T01:43:12.373Z,20.16
2023-07-30T01:45:15.873Z,20.15
2023-07-30T01:47:18.980Z,20.13
2023-07-30T01:49:22.533Z,20.13
2023-07-30T01:51:25.908Z,20.14
2023-07-30T01:53:29.313Z,20.16
2023-07-30T01:55:33.947Z,20.12
2023-07-30T01:57:37.511Z,20.08
2023-07-30T01:59:41.363Z,20.08
2023-07-30T02:01:45.790Z,20.07
2023-07-30T02:03:48.283Z,20.03
2023-07-30T02:05:52.285Z,20.04
2023-07-30T02:07:54.939Z,20.04
2023-07-30T02:09:58.809Z,20.04
2023-07-30T02:12:03.843Z,20.04
2023-07-30T02:14:07.284Z,20.03
2023-07-30T02:16:11.189Z,20.05
2023-07-30T02:18:15.204Z,20.05
2023-07-30T02:20:18.501Z,20.03
2023-07-30T02:22:23.067Z,20.03
2023-07-30T02:24:27.220Z,20.01
2023-07-30T02:26:30.420Z,20.00
2023-07-30T02:28:34.158Z,19.99
2023-07-30T02:30:37.785Z,19.99
2023-07-30T02:32:47.947Z,19.98
2023-07-30T02:34:51.928Z,19.97
2023-07-30T02:36:55.312Z,19.95
2023-07-30T02:38:58.629Z,19.95
2023-07-30T02:41:01.954Z,19.94
2023-07-30T02:43:05.827Z,19.91
2023-07-30T02:45:11.632Z,19.89
2023-07-30T02:47:14.778Z,19.88
2023-07-30T02:49:18.029Z,19.87
2023-07-30T02:51:21.641Z,19.87
2023-07-30T02:53:25.022Z,19.85
2023-07-30T02:55:28.496Z,19.84
2023-07-30T02:57:32.177Z,19.83
2023-07-30T02:59:37.023Z,19.83
2023-07-30T03:01:42.518Z,19.84
2023-07-30T03:03:46.636Z,19.83
2023-07-30T03:05:50.465Z,19.84
2023-07-30T03:07:54.513Z,19.83
2023-07-30T03:09:58.172Z,19.85
2023-07-30T03:12:01.456Z,19.86
2023-07-30T03:14:04.677Z,19.87
2023-07-30T03:16:08.264Z,19.87
2023-07-30T03:18:13.568Z,19.86
2023-07-30T03:20:16.894Z,19.85
2023-07-30T03:22:20.362Z,19.83
2023-07-30T03:24:24.561Z,19.85
2023-07-30T03:26:27.823Z,19.87
2023-07-30T03:28:31.734Z,19.86
2023-07-30T03:30:35.222Z,19.86
2023-07-30T03:32:39.028Z,19.83
2023-07-30T03:34:43.443Z,19.85
2023-07-30T03:36:47.113Z,19.86
2023-07-30T03:38:50.744Z,19.86
2023-07-30T03:40:53.929Z,19.86
2023-07-30T03:42:57.544Z,19.87
2023-07-30T03:44:59.765Z,19.88
2023-07-30T03:47:03.385Z,19.88
2023-07-30T03:49:05.574Z,19.85
2023-07-30T03:51:10.651Z,19.83
2023-07-30T03:53:13.755Z,19.80
2023-07-30T03:55:17.241Z,19.79
2023-07-30T03:57:20.343Z,19.80
2023-07-30T03:59:24.297Z,19.83
2023-07-30T04:01:27.432Z,19.85
2023-07-30T04:03:30.640Z,19.85
2023-07-30T04:05:34.094Z,19.85
2023-07-30T04:07:40.916Z,19.85
2023-07-30T04:09:43.536Z,19.86
2023-07-30T04:11:47.009Z,19.86
2023-07-30T04:13:50.271Z,19.87
2023-07-30T04:15:53.512Z,19.90
2023-07-30T04:17:56.720Z,19.91
2023-07-30T04:20:00.023Z,19.93
2023-07-30T04:22:04.784Z,19.95
2023-07-30T04:24:09.533Z,19.97
2023-07-30T04:26:12.709Z,20.00
2023-07-30T04:28:15.981Z,20.03
2023-07-30T04:30:20.207Z,20.05
2023-07-30T04:32:23.589Z,20.08
2023-07-30T04:34:27.558Z,20.10
2023-07-30T04:36:30.733Z,20.12
2023-07-30T04:38:34.397Z,20.15
2023-07-30T04:40:39.550Z,20.16
2023-07-30T04:42:42.803Z,20.13
2023-07-30T04:44:46.672Z,20.12
2023-07-30T04:46:51.833Z,20.14
2023-07-30T04:48:55.166Z,20.15
2023-07-30T04:50:58.328Z,20.16
2023-07-30T04:53:02.190Z,20.17
2023-07-30T04:55:06.322Z,20.17
2023-07-30T04:57:10.900Z,20.18
2023-07-30T04:59:14.059Z,20.21
2023-07-30T05:01:17.516Z,20.22
2023-07-30T05:03:20.822Z,20.24
2023-07-30T05:05:23.120Z,20.25
2023-07-30T05:07:26.168Z,20.24
2023-07-30T05:09:29.358Z,20.26
2023-07-30T05:11:32.493Z,20.29
2023-07-30T05:13:36.153Z,20.32
2023-07-30T05:15:39.381Z,20.35
2023-07-30T05:17:42.770Z,20.42
2023-07-30T05:19:45.081Z,20.43
2023-07-30T05:21:48.374Z,20.48
2023-07-30T05:23:51.543Z,20.51
2023-07-30T05:25:54.663Z,20.57
2023-07-30T05:27:58.006Z,20.63
2023-07-30T05:30:02.675Z,20.66
2023-07-30T05:32:08.565Z,20.64
2023-07-30T05:34:11.656Z,20.61
2023-07-30T05:36:14.762Z,20.55
2023-07-30T05:38:18.639Z,20.50
2023-07-30T05:40:21.812Z,20.41
2023-07-30T05:42:24.967Z,20.36
2023-07-30T05:44:28.164Z,20.32
2023-07-30T05:46:32.669Z,20.24
2023-07-30T05:48:35.922Z,20.15
2023-07-30T05:50:39.294Z,20.10
2023-07-30T05:52:42.438Z,20.04
2023-07-30T05:54:45.552Z,20.05
2023-07-30T05:56:48.844Z,20.05
2023-07-30T05:58:52.115Z,20.08
2023-07-30T06:00:55.312Z,20.12
2023-07-30T06:03:00.081Z,20.11
2023-07-30T06:05:03.325Z,20.10
2023-07-30T06:07:06.567Z,20.14
2023-07-30T06:09:09.107Z,20.15
2023-07-30T06:11:12.239Z,20.18
2023-07-30T06:13:15.424Z,20.19
2023-07-30T06:15:18.656Z,20.19
2023-07-30T06:17:21.806Z,20.19
2023-07-30T06:19:27.748Z,20.23
2023-07-30T06:21:30.948Z,20.23
2023-07-30T06:23:34.040Z,20.22
2023-07-30T06:25:37.146Z,20.27
2023-07-30T06:27:40.415Z,20.27
2023-07-30T06:29:43.769Z,20.33
2023-07-30T06:31:46.930Z,20.36
2023-07-30T06:33:50.140Z,20.44
2023-07-30T06:35:54.601Z,20.47
2023-07-30T06:37:57.994Z,20.52
2023-07-30T06:40:01.135Z,20.55
2023-07-30T06:42:03.534Z,20.58
2023-07-30T06:44:06.740Z,20.58
2023-07-30T06:46:10.140Z,20.65
2023-07-30T06:48:13.275Z,20.70
2023-07-30T06:50:16.514Z,20.75
2023-07-30T06:52:21.432Z,21.04
2023-07-30T06:54:24.602Z,21.49
2023-07-30T06:56:27.766Z,21.60
2023-07-30T06:58:34.272Z,21.62
2023-07-30T07:00:37.584Z,21.93
2023-07-30T07:02:40.842Z,22.11
2023-07-30T07:04:43.041Z,21.89
2023-07-30T07:06:46.124Z,21.83
2023-07-30T07:08:50.657Z,22.34
2023-07-30T07:10:53.964Z,22.74
2023-07-30T07:12:57.185Z,22.75
2023-07-30T07:15:02.476Z,22.69
2023-07-30T07:17:06.150Z,23.04
2023-07-30T07:19:09.450Z,23.53
2023-07-30T07:21:14.294Z,23.65
2023-07-30T07:23:17.393Z,23.38
2023-07-30T07:25:22.284Z,23.10
2023-07-30T07:27:25.228Z,22.86
2023-07-30T07:29:28.402Z,22.67
2023-07-30T07:31:32.879Z,22.51
2023-07-30T07:33:38.364Z,22.35
2023-07-30T07:35:41.589Z,22.23
2023-07-30T07:37:44.737Z,22.08
2023-07-30T07:39:48.037Z,22.01
2023-07-30T07:41:52.662Z,21.95
2023-07-30T07:43:55.930Z,21.93
2023-07-30T07:45:59.165Z,21.90
2023-07-30T07:48:02.669Z,21.91
2023-07-30T07:50:06.828Z,21.94
2023-07-30T07:52:10.366Z,21.94
2023-07-30T07:54:13.518Z,21.94
2023-07-30T07:56:16.828Z,21.93
2023-07-30T07:58:21.462Z,21.91
2023-07-30T08:00:24.634Z,21.89
2023-07-30T08:02:27.852Z,21.86
2023-07-30T08:04:31.181Z,21.81
2023-07-30T08:06:34.566Z,21.73
2023-07-30T08:08:38.089Z,21.65
2023-07-30T08:10:43.781Z,21.60
2023-07-30T08:12:48.654Z,21.55
2023-07-30T08:14:53.341Z,21.51
2023-07-30T08:16:56.454Z,21.49
2023-07-30T08:19:02.037Z,21.51
2023-07-30T08:21:05.777Z,21.44
2023-07-30T08:23:11.628Z,21.27
2023-07-30T08:25:14.909Z,21.25
2023-07-30T08:27:18.228Z,21.30
2023-07-30T08:29:21.650Z,21.37
2023-07-30T08:31:26.590Z,21.40
2023-07-30T08:33:30.314Z,21.49
2023-07-30T08:35:33.524Z,21.60
2023-07-30T08:37:36.690Z,21.75
2023-07-30T08:39:39.834Z,21.85
2023-07-30T08:41:43.071Z,21.91
2023-07-30T08:43:49.845Z,21.94
2023-07-30T08:45:53.088Z,21.94
2023-07-30T08:47:57.741Z,21.95
2023-07-30T08:50:01.018Z,22.00
2023-07-30T08:52:05.173Z,22.12
2023-07-30T08:54:09.145Z,22.23
2023-07-30T08:58:15.952Z,22.35
2023-07-30T09:00:21.688Z,22.35
2023-07-30T09:02:28.854Z,22.36
2023-07-30T09:04:36.710Z,22.34
2023-07-30T09:06:40.123Z,22.40
2023-07-30T09:08:43.462Z,22.45
2023-07-30T09:10:46.695Z,22.48
2023-07-30T09:12:54.828Z,22.60
2023-07-30T09:14:57.986Z,22.75
2023-07-30T09:17:01.268Z,22.91
2023-07-30T09:19:04.870Z,23.14
2023-07-30T09:21:09.396Z,23.31
2023-07-30T09:23:13.490Z,23.53
2023-07-30T09:25:17.286Z,23.78
2023-07-30T09:27:24.159Z,23.81
2023-07-30T09:29:27.438Z,23.61
2023-07-30T09:31:30.668Z,23.37
2023-07-30T09:33:34.304Z,23.21
2023-07-30T09:35:37.879Z,23.16
2023-07-30T09:37:43.529Z,23.18
2023-07-30T09:39:49.773Z,23.32
2023-07-30T09:41:55.267Z,23.61
2023-07-30T09:44:00.529Z,23.79
2023-07-30T09:46:04.868Z,23.98
2023-07-30T09:48:08.333Z,24.07
2023-07-30T09:50:12.673Z,24.02
2023-07-30T09:52:16.132Z,23.96
2023-07-30T09:54:20.687Z,23.96
2023-07-30T09:56:23.000Z,23.80
2023-07-30T09:58:26.639Z,23.76
2023-07-30T10:00:30.738Z,23.81
2023-07-30T10:02:33.902Z,23.79
2023-07-30T10:04:38.935Z,23.81
2023-07-30T10:06:46.982Z,23.80
2023-07-30T10:08:50.508Z,23.78
2023-07-30T10:10:56.347Z,23.82
2023-07-30T10:13:02.675Z,23.82
2023-07-30T10:15:06.967Z,23.84
2023-07-30T10:17:12.349Z,23.83
2023-07-30T10:19:17.954Z,23.79
2023-07-30T10:21:25.570Z,23.77
2023-07-30T10:23:30.358Z,23.75
2023-07-30T10:25:45.105Z,23.69
2023-07-30T10:27:52.188Z,23.59
2023-07-30T10:30:11.157Z,23.58
2023-07-30T10:32:14.634Z,23.68
2023-07-30T10:34:18.007Z,23.74
2023-07-30T10:36:31.434Z,23.73
2023-07-30T10:38:36.873Z,23.74
2023-07-30T10:40:41.043Z,23.79
2023-07-30T10:42:44.332Z,23.91
2023-07-30T10:44:48.944Z,23.99
2023-07-30T10:46:52.308Z,24.10
2023-07-30T10:48:55.715Z,24.22
2023-07-30T10:50:59.048Z,24.19
2023-07-30T10:53:02.287Z,24.22
2023-07-30T10:55:06.362Z,24.20
2023-07-30T10:57:09.925Z,24.11
2023-07-30T10:59:14.342Z,24.16
2023-07-30T11:01:18.169Z,24.26
2023-07-30T11:03:21.687Z,24.40
2023-07-30T11:05:26.128Z,24.43
2023-07-30T11:07:30.811Z,24.52
2023-07-30T11:09:34.139Z,24.60
2023-07-30T11:11:37.948Z,24.63
2023-07-30T11:13:43.173Z,24.68
2023-07-30T11:15:45.758Z,24.79
2023-07-30T11:17:50.892Z,24.78
2023-07-30T11:19:54.129Z,24.74
2023-07-30T11:21:58.681Z,24.82
2023-07-30T11:24:01.955Z,24.74
2023-07-30T11:26:05.459Z,24.64
2023-07-30T11:28:08.718Z,24.51
2023-07-30T11:30:12.660Z,24.36
2023-07-30T11:32:16.934Z,24.29
2023-07-30T11:34:21.464Z,24.24
2023-07-30T11:36:26.673Z,24.19
2023-07-30T11:38:29.489Z,24.15
2023-07-30T11:40:32.745Z,24.01
2023-07-30T11:42:36.375Z,23.88
2023-07-30T11:44:40.989Z,23.80
2023-07-30T11:46:55.536Z,23.74
2023-07-30T11:49:13.262Z,23.63
2023-07-30T11:51:25.410Z,23.54
2023-07-30T11:53:46.436Z,23.48
2023-07-30T11:55:49.632Z,23.43
2023-07-30T11:57:52.634Z,23.49
2023-07-30T11:59:55.685Z,23.55
2023-07-30T12:01:59.693Z,23.66
2023-07-30T12:04:04.649Z,23.76
2023-07-30T12:06:08.100Z,23.86
2023-07-30T12:08:20.229Z,23.91
2023-07-30T12:10:23.245Z,23.94
2023-07-30T12:12:29.077Z,23.99
2023-07-30T12:14:46.645Z,24.15
2023-07-30T12:16:49.721Z,24.26
2023-07-30T12:18:52.871Z,24.29
2023-07-30T12:20:56.402Z,24.40
2023-07-30T12:22:59.441Z,24.50
2023-07-30T12:25:04.682Z,24.48
2023-07-30T12:27:07.749Z,24.53
2023-07-30T12:29:10.788Z,24.57
2023-07-30T12:31:14.054Z,24.58
2023-07-30T12:33:17.847Z,24.60
2023-07-30T12:35:20.871Z,24.55
2023-07-30T12:37:24.179Z,24.51
2023-07-30T12:39:27.253Z,24.55
2023-07-30T12:41:31.800Z,24.51
2023-07-30T12:43:34.894Z,24.41
2023-07-30T12:45:38.884Z,24.27
2023-07-30T12:47:42.371Z,24.20
2023-07-30T12:49:45.607Z,24.17
2023-07-30T12:51:48.881Z,24.18
2023-07-30T12:53:51.819Z,24.21
2023-07-30T12:55:54.873Z,24.21
2023-07-30T12:57:58.298Z,24.25
2023-07-30T13:00:01.411Z,24.32
2023-07-30T13:02:04.909Z,24.35
2023-07-30T13:04:08.057Z,24.32
2023-07-30T13:06:11.179Z,24.27
2023-07-30T13:08:14.247Z,24.34
2023-07-30T13:10:17.478Z,24.35
2023-07-30T13:12:20.806Z,24.35
2023-07-30T13:14:25.351Z,24.38
2023-07-30T13:16:28.481Z,24.32
2023-07-30T13:18:31.759Z,24.29
2023-07-30T13:20:34.916Z,24.29
2023-07-30T13:22:37.937Z,24.29
2023-07-30T13:24:40.966Z,24.31
2023-07-30T13:26:44.001Z,24.29
2023-07-30T13:28:47.011Z,24.31
2023-07-30T13:30:52.423Z,24.34
2023-07-30T13:32:55.552Z,24.37
2023-07-30T13:34:58.553Z,24.34
2023-07-30T13:37:01.524Z,24.31
2023-07-30T13:39:04.595Z,24.32
2023-07-30T13:41:07.905Z,24.30
2023-07-30T13:43:10.992Z,24.31
2023-07-30T13:45:14.017Z,24.37
2023-07-30T13:47:18.426Z,24.39
2023-07-30T13:49:20.483Z,24.32
2023-07-30T13:51:23.505Z,24.28
2023-07-30T13:53:26.572Z,24.28
2023-07-30T13:55:29.570Z,24.30
2023-07-30T13:57:33.521Z,24.38
2023-07-30T13:59:38.258Z,24.47
2023-07-30T14:01:41.573Z,24.59
2023-07-30T14:03:47.100Z,24.71
2023-07-30T14:05:50.159Z,24.75
2023-07-30T14:07:56.976Z,24.78
2023-07-30T14:09:59.988Z,24.71
2023-07-30T14:12:02.892Z,24.65
2023-07-30T14:14:06.860Z,24.63
2023-07-30T14:16:09.578Z,24.62
2023-07-30T14:18:12.666Z,24.59
2023-07-30T14:20:17.052Z,24.55
2023-07-30T14:22:20.036Z,24.59
2023-07-30T14:24:23.480Z,24.63
2023-07-30T14:26:26.597Z,24.65
2023-07-30T14:28:28.617Z,24.61
2023-07-30T14:30:32.294Z,24.63
2023-07-30T14:32:35.286Z,24.65
2023-07-30T14:34:38.339Z,24.56
2023-07-30T14:36:42.767Z,24.51
2023-07-30T14:38:45.756Z,24.46
2023-07-30T14:40:47.834Z,24.41
2023-07-30T14:42:50.868Z,24.43
2023-07-30T14:44:54.041Z,24.43
2023-07-30T14:46:58.091Z,24.43
2023-07-30T14:49:01.441Z,24.42
2023-07-30T14:51:04.501Z,24.42
2023-07-30T14:53:08.904Z,24.39
2023-07-30T14:55:12.617Z,24.31
2023-07-30T14:57:15.568Z,24.20
2023-07-30T14:59:18.495Z,24.16
2023-07-30T15:01:21.453Z,24.14
2023-07-30T15:03:24.575Z,24.07
2023-07-30T15:05:27.549Z,24.02
2023-07-30T15:07:29.549Z,23.99
2023-07-30T15:09:36.116Z,23.94
2023-07-30T15:11:39.267Z,23.92
2023-07-30T15:13:42.206Z,23.91
2023-07-30T15:15:46.246Z,23.88
2023-07-30T15:17:49.254Z,23.90
2023-07-30T15:19:53.300Z,23.92
2023-07-30T15:21:56.366Z,23.90
2023-07-30T15:24:00.258Z,23.86
2023-07-30T15:26:04.674Z,23.78
2023-07-30T15:28:07.767Z,23.77
2023-07-30T15:30:11.119Z,23.76
2023-07-30T15:32:13.193Z,23.72
2023-07-30T15:34:16.155Z,23.73
2023-07-30T15:36:19.180Z,23.74
2023-07-30T15:38:22.440Z,23.76
2023-07-30T15:40:25.427Z,23.75
2023-07-30T15:42:29.983Z,23.76
2023-07-30T15:44:33.107Z,23.69
2023-07-30T15:46:36.194Z,23.65
2023-07-30T15:48:39.390Z,23.63
2023-07-30T15:50:42.387Z,23.62
2023-07-30T15:52:45.480Z,23.62
2023-07-30T15:54:48.772Z,23.63
2023-07-30T15:56:51.702Z,23.63
2023-07-30T15:58:56.215Z,23.65
2023-07-30T16:00:59.859Z,23.67
2023-07-30T16:03:05.533Z,23.64
2023-07-30T16:05:08.259Z,23.59
2023-07-30T16:07:13.201Z,23.54
2023-07-30T16:09:16.849Z,23.55
2023-07-30T16:11:19.207Z,23.55
2023-07-30T16:13:22.296Z,23.51
2023-07-30T16:15:29.293Z,23.44
2023-07-30T16:17:32.388Z,23.39
2023-07-30T16:19:35.493Z,23.40
2023-07-30T16:21:38.556Z,23.40
2023-07-30T16:23:41.816Z,23.33
2023-07-30T16:25:44.949Z,23.30
2023-07-30T16:27:47.961Z,23.27
2023-07-30T16:29:51.105Z,23.25
2023-07-30T16:31:55.717Z,23.25
2023-07-30T16:33:58.671Z,23.25
2023-07-30T16:36:03.071Z,23.25
2023-07-30T16:38:06.333Z,23.22
2023-07-30T16:40:10.551Z,23.20
2023-07-30T16:42:13.664Z,23.19
2023-07-30T16:44:17.473Z,23.18
2023-07-30T16:46:20.485Z,23.10
2023-07-30T16:48:24.056Z,23.03
2023-07-30T16:50:27.103Z,22.97
2023-07-30T16:52:30.313Z,22.93
2023-07-30T16:54:33.706Z,22.90
2023-07-30T16:56:36.897Z,22.86
2023-07-30T16:58:40.491Z,22.79
2023-07-30T17:00:43.484Z,22.75
2023-07-30T17:02:46.554Z,22.70
2023-07-30T17:04:50.989Z,22.65
2023-07-30T17:06:54.058Z,22.59
2023-07-30T17:08:57.051Z,22.54
2023-07-30T17:11:04.532Z,22.48
2023-07-30T17:13:07.576Z,22.41
2023-07-30T17:15:12.039Z,22.39
2023-07-30T17:17:15.003Z,22.38
2023-07-30T17:19:17.953Z,22.37
2023-07-30T17:21:22.792Z,22.38
2023-07-30T17:23:25.741Z,22.38
2023-07-30T17:25:28.717Z,22.39
2023-07-30T17:27:31.637Z,22.38
2023-07-30T17:29:34.685Z,22.39
2023-07-30T17:31:37.920Z,22.42
2023-07-30T17:33:41.119Z,22.42
2023-07-30T17:35:43.455Z,22.43
2023-07-30T17:37:47.963Z,22.44
2023-07-30T17:39:50.904Z,22.45
2023-07-30T17:41:52.935Z,22.46
2023-07-30T17:43:55.905Z,22.45
2023-07-30T17:45:58.982Z,22.43
2023-07-30T17:48:02.129Z,22.40
2023-07-30T17:50:05.477Z,22.43
2023-07-30T17:52:09.156Z,22.46
2023-07-30T17:54:13.466Z,22.48
2023-07-30T17:56:16.566Z,22.47
2023-07-30T17:58:19.539Z,22.47
2023-07-30T18:00:22.523Z,22.45
2023-07-30T18:02:25.555Z,22.43
2023-07-30T18:04:28.722Z,22.40
2023-07-30T18:06:31.767Z,22.39
2023-07-30T18:08:35.038Z,22.37
2023-07-30T18:10:39.391Z,22.34
2023-07-30T18:12:42.372Z,22.29
2023-07-30T18:14:45.491Z,22.24
2023-07-30T18:16:48.657Z,22.20
2023-07-30T18:18:52.677Z,22.16
2023-07-30T18:20:54.842Z,22.12
2023-07-30T18:22:57.888Z,22.08
2023-07-30T18:25:00.906Z,22.04
2023-07-30T18:27:05.694Z,21.99
2023-07-30T18:29:08.811Z,21.95
2023-07-30T18:31:11.756Z,21.91
2023-07-30T18:33:14.810Z,21.87
2023-07-30T18:35:18.673Z,21.81
2023-07-30T18:37:21.667Z,21.75
2023-07-30T18:39:24.816Z,21.70
2023-07-30T18:41:28.031Z,21.64
2023-07-30T18:43:32.637Z,21.62
2023-07-30T18:45:36.067Z,21.59
2023-07-30T18:47:39.210Z,21.58
2023-07-30T18:49:42.222Z,21.53
2023-07-30T18:51:45.179Z,21.51
2023-07-30T18:53:48.233Z,21.47
2023-07-30T18:55:52.517Z,21.42
2023-07-30T18:57:55.554Z,21.39
2023-07-30T18:59:59.929Z,21.35
2023-07-30T19:02:03.017Z,21.31
2023-07-30T19:04:06.096Z,21.29
2023-07-30T19:06:09.177Z,21.27
2023-07-30T19:08:12.182Z,21.24
2023-07-30T19:10:15.246Z,21.20
2023-07-30T19:12:18.356Z,21.16
2023-07-30T19:14:21.384Z,21.12
2023-07-30T19:16:25.929Z,21.10
2023-07-30T19:18:29.040Z,21.05
2023-07-30T19:20:32.001Z,21.00
2023-07-30T19:22:34.996Z,20.98
2023-07-30T19:24:38.054Z,20.96
2023-07-30T19:26:41.429Z,20.92
2023-07-30T19:28:44.578Z,20.89
2023-07-30T19:30:47.653Z,20.85
2023-07-30T19:32:52.201Z,20.82
2023-07-30T19:34:55.221Z,20.80
2023-07-30T19:36:58.251Z,20.80
2023-07-30T19:39:01.257Z,20.78
2023-07-30T19:41:18.597Z,20.77
2023-07-30T19:43:30.110Z,20.73
2023-07-30T19:45:33.150Z,20.70
2023-07-30T19:47:36.468Z,20.65
2023-07-30T19:49:41.117Z,20.61
2023-07-30T19:51:44.641Z,20.55
2023-07-30T19:53:47.985Z,20.51
2023-07-30T19:55:50.976Z,20.48
2023-07-30T19:57:53.199Z,20.43
2023-07-30T19:59:56.269Z,20.39
2023-07-30T20:02:00.114Z,20.35
2023-07-30T20:04:03.369Z,20.32
2023-07-30T20:06:11.728Z,20.31
2023-07-30T20:08:16.455Z,20.30
2023-07-30T20:10:19.524Z,20.27
2023-07-30T20:12:22.603Z,20.22
2023-07-30T20:14:25.786Z,20.15
2023-07-30T20:16:28.876Z,20.08
2023-07-30T20:18:32.305Z,20.05
2023-07-30T20:20:35.357Z,20.01
2023-07-30T20:22:39.772Z,19.98
2023-07-30T20:24:42.805Z,19.95
2023-07-30T20:26:45.895Z,19.90
2023-07-30T20:28:51.764Z,19.86
2023-07-30T20:30:56.364Z,19.83
2023-07-30T20:33:00.434Z,19.82
2023-07-30T20:35:04.149Z,19.80
2023-07-30T20:37:07.367Z,19.78
2023-07-30T20:39:11.708Z,19.76
2023-07-30T20:41:14.786Z,19.72
2023-07-30T20:43:17.762Z,19.65
2023-07-30T20:45:21.169Z,19.61
2023-07-30T20:47:24.246Z,19.55
2023-07-30T20:49:27.245Z,19.49
2023-07-30T20:51:30.224Z,19.46
2023-07-30T20:53:33.271Z,19.38
2023-07-30T20:55:37.685Z,19.37
2023-07-30T20:57:41.587Z,19.30
2023-07-30T20:59:45.072Z,19.22
2023-07-30T21:01:48.023Z,19.14
2023-07-30T21:03:50.969Z,19.08
2023-07-30T21:05:54.216Z,19.05
2023-07-30T21:07:57.435Z,19.03
2023-07-30T21:10:00.472Z,19.02
2023-07-30T21:12:06.542Z,19.01
2023-07-30T21:14:08.612Z,18.95
2023-07-30T21:16:11.625Z,18.93
2023-07-30T21:18:15.254Z,18.86
2023-07-30T21:20:18.702Z,18.84
2023-07-30T21:22:20.686Z,18.81
2023-07-30T21:24:23.640Z,18.81
2023-07-30T21:26:26.630Z,18.80
2023-07-30T21:28:31.084Z,18.78
2023-07-30T21:30:34.229Z,18.77
2023-07-30T21:32:37.320Z,18.77
2023-07-30T21:34:40.434Z,18.74
2023-07-30T21:36:43.470Z,18.68
2023-07-30T21:38:46.497Z,18.66
2023-07-30T21:40:49.612Z,18.60
2023-07-30T21:42:52.572Z,18.53
2023-07-30T21:44:57.186Z,18.48
2023-07-30T21:47:00.204Z,18.43
2023-07-30T21:49:03.373Z,18.40
2023-07-30T21:51:05.547Z,18.39
2023-07-30T21:53:08.492Z,18.38
2023-07-30T21:55:10.488Z,18.37
2023-07-30T21:57:13.527Z,18.36
2023-07-30T21:59:16.601Z,18.34
2023-07-30T22:01:21.154Z,18.33
2023-07-30T22:03:24.756Z,18.30
2023-07-30T22:05:28.245Z,18.25
2023-07-30T22:07:32.063Z,18.22
2023-07-30T22:09:39.149Z,18.20
2023-07-30T22:11:42.291Z,18.19
2023-07-30T22:13:45.680Z,18.17
2023-07-30T22:15:49.200Z,18.16
2023-07-30T22:17:53.667Z,18.17
2023-07-30T22:19:56.741Z,18.16
2023-07-30T22:21:58.877Z,18.16
2023-07-30T22:24:01.914Z,18.17
2023-07-30T22:26:04.253Z,18.17
2023-07-30T22:28:09.981Z,18.15
2023-07-30T22:30:13.884Z,18.16
2023-07-30T22:32:16.889Z,18.15
2023-07-30T22:34:20.321Z,18.15
2023-07-30T22:36:23.390Z,18.14
2023-07-30T22:38:26.478Z,18.12
2023-07-30T22:40:30.705Z,18.06
2023-07-30T22:42:33.917Z,18.01
2023-07-30T22:44:37.025Z,17.97
2023-07-30T22:46:40.728Z,17.96
2023-07-30T22:48:43.965Z,17.94
2023-07-30T22:50:47.517Z,17.94
2023-07-30T22:52:50.601Z,17.92
2023-07-30T22:54:53.725Z,17.91
2023-07-30T22:56:56.833Z,17.90
2023-07-30T22:59:00.013Z,17.89
2023-07-30T23:01:03.255Z,17.88
2023-07-30T23:03:06.454Z,17.86
2023-07-30T23:05:09.570Z,17.83
2023-07-30T23:07:13.969Z,17.80
2023-07-30T23:09:17.063Z,17.79
2023-07-30T23:11:20.162Z,17.77
2023-07-30T23:13:23.620Z,17.76
2023-07-30T23:15:26.631Z,17.75
2023-07-30T23:17:29.709Z,17.73
2023-07-30T23:19:32.806Z,17.70
2023-07-30T23:21:34.864Z,17.69
2023-07-30T23:23:39.346Z,17.69
2023-07-30T23:25:42.480Z,17.66
2023-07-30T23:27:45.600Z,17.64
2023-07-30T23:29:48.948Z,17.64
2023-07-30T23:31:54.288Z,17.65
2023-07-30T23:33:57.634Z,17.68
2023-07-30T23:36:00.806Z,17.72
2023-07-30T23:38:03.961Z,17.76
2023-07-30T23:40:10.259Z,17.78
2023-07-30T23:42:13.463Z,17.79
2023-07-30T23:44:16.532Z,17.79
2023-07-30T23:46:19.638Z,17.80
2023-07-30T23:48:23.011Z,17.78
2023-07-30T23:50:26.128Z,17.79
2023-07-30T23:52:29.182Z,17.80
2023-07-30T23:54:31.276Z,17.81
2023-07-30T23:56:35.642Z,17.80
2023-07-30T23:58:38.723Z,17.79
